createdAt,value
2018-03-11T00:01:45.235Z,99304.81
2018-03-11T00:04:16.073Z,99311.42
2018-03-11T00:06:47.371Z,99309.92
2018-03-11T00:09:18.173Z,99311.44
2018-03-11T00:11:48.668Z,99308.13
2018-03-11T00:14:19.431Z,99311.16
2018-03-11T00:16:50.155Z,99312.81
2018-03-11T00:19:21.566Z,99320.19
2018-03-11T00:21:52.165Z,99314.00
2018-03-11T00:24:23.530Z,99312.41
2018-03-11T00:26:54.226Z,99310.37
2018-03-11T00:29:25.228Z,99310.84
2018-03-11T00:31:56.656Z,99313.02
2018-03-11T00:34:27.387Z,99312.59
2018-03-11T00:36:57.768Z,99308.87
2018-03-11T00:39:28.484Z,99308.30
2018-03-11T00:41:59.673Z,99307.06
2018-03-11T00:44:30.345Z,99303.77
2018-03-11T00:47:01.060Z,99303.82
2018-03-11T00:49:32.536Z,99301.98
2018-03-11T00:52:03.170Z,99297.18
2018-03-11T00:54:34.232Z,99300.16
2018-03-11T00:57:05.088Z,99303.39
2018-03-11T00:59:36.432Z,99300.42
2018-03-11T01:02:07.937Z,99296.52
2018-03-11T01:04:38.488Z,99298.92
2018-03-11T01:07:09.087Z,99301.38
2018-03-11T01:09:40.525Z,99294.11
2018-03-11T01:12:11.057Z,99298.48
2018-03-11T01:14:42.090Z,99291.63
2018-03-11T01:17:13.427Z,99285.77
2018-03-11T01:19:45.377Z,99290.30
2018-03-11T01:22:15.950Z,99292.75
2018-03-11T01:24:46.646Z,99295.91
2018-03-11T01:27:18.435Z,99287.73
2018-03-11T01:29:48.753Z,99288.30
2018-03-11T01:32:18.565Z,99283.91
2018-03-11T01:34:49.256Z,99284.74
2018-03-11T01:37:20.118Z,99291.15
2018-03-11T01:39:50.667Z,99289.48
2018-03-11T01:42:21.240Z,99294.84
2018-03-11T01:44:52.127Z,99287.95
2018-03-11T01:47:22.575Z,99290.25
2018-03-11T01:49:53.288Z,99283.24
2018-03-11T01:52:24.031Z,99283.81
2018-03-11T01:54:55.490Z,99285.45
2018-03-11T01:57:26.060Z,99285.47
2018-03-11T01:59:56.616Z,99285.72
2018-03-11T02:02:27.227Z,99282.73
2018-03-11T02:04:58.200Z,99281.70
2018-03-11T02:07:28.068Z,99270.80
2018-03-11T02:09:58.746Z,99277.36
2018-03-11T02:12:29.611Z,99282.61
2018-03-11T02:15:00.118Z,99280.52
2018-03-11T02:17:31.601Z,99279.52
2018-03-11T02:20:03.648Z,99282.13
2018-03-11T02:22:34.244Z,99272.00
2018-03-11T02:25:05.172Z,99273.09
2018-03-11T02:27:36.228Z,99273.64
2018-03-11T02:30:07.136Z,99270.50
2018-03-11T02:32:38.397Z,99267.55
2018-03-11T02:35:09.079Z,99263.88
2018-03-11T02:37:40.386Z,99272.58
2018-03-11T02:40:11.192Z,99261.67
2018-03-11T02:42:42.142Z,99256.23
2018-03-11T02:45:13.084Z,99255.50
2018-03-11T02:47:44.096Z,99255.41
2018-03-11T02:50:14.704Z,99265.58
2018-03-11T02:52:44.914Z,99266.69
2018-03-11T02:55:15.578Z,99265.73
2018-03-11T02:57:46.201Z,99256.69
2018-03-11T03:00:17.164Z,99250.25
2018-03-11T03:02:48.145Z,99252.73
2018-03-11T03:05:19.555Z,99253.33
2018-03-11T03:07:49.435Z,99254.98
2018-03-11T03:10:20.271Z,99255.13
2018-03-11T03:12:51.103Z,99246.53
2018-03-11T03:15:22.634Z,99245.42
2018-03-11T03:17:53.173Z,99243.47
2018-03-11T03:20:23.752Z,99247.56
2018-03-11T03:22:54.364Z,99246.23
2018-03-11T03:25:25.329Z,99242.92
2018-03-11T03:27:57.039Z,99246.50
2018-03-11T03:30:27.421Z,99244.20
2018-03-11T03:32:59.053Z,99245.25
2018-03-11T03:35:29.865Z,99252.73
2018-03-11T03:38:00.555Z,99249.17
2018-03-11T03:40:31.220Z,99247.94
2018-03-11T03:43:02.180Z,99248.75
2018-03-11T03:45:34.041Z,99261.36
2018-03-11T03:48:07.610Z,99260.04
2018-03-11T03:50:36.802Z,99258.72
2018-03-11T03:53:05.976Z,99255.33
2018-03-11T03:55:36.585Z,99252.78
2018-03-11T03:58:07.173Z,99249.05
2018-03-11T04:00:38.648Z,99256.47
2018-03-11T04:03:09.391Z,99252.36
2018-03-11T04:05:39.769Z,99249.61
2018-03-11T04:08:11.049Z,99247.48
2018-03-11T04:10:42.523Z,99248.25
2018-03-11T04:13:13.744Z,99244.48
2018-03-11T04:15:44.456Z,99258.67
2018-03-11T04:18:15.070Z,99230.02
2018-03-11T04:20:45.879Z,99244.23
2018-03-11T04:23:17.474Z,99248.91
2018-03-11T04:25:46.717Z,99241.70
2018-03-11T04:28:18.296Z,99234.86
2018-03-11T04:30:49.068Z,99238.89
2018-03-11T04:33:20.482Z,99237.62
2018-03-11T04:35:51.289Z,99251.70
2018-03-11T04:38:22.156Z,99251.65
2018-03-11T04:40:53.164Z,99243.06
2018-03-11T04:43:24.087Z,99244.51
2018-03-11T04:45:55.476Z,99243.38
2018-03-11T04:48:26.470Z,99242.45
2018-03-11T04:50:57.276Z,99241.83
2018-03-11T04:53:27.761Z,99237.52
2018-03-11T04:55:58.406Z,99243.00
2018-03-11T04:58:29.172Z,99241.35
2018-03-11T05:01:00.585Z,99247.67
2018-03-11T05:03:30.848Z,99253.16
2018-03-11T05:06:02.696Z,99245.81
2018-03-11T05:08:32.960Z,99242.80
2018-03-11T05:11:03.612Z,99252.30
2018-03-11T05:13:34.281Z,99247.92
2018-03-11T05:16:05.922Z,99248.01
2018-03-11T05:18:36.490Z,99248.86
2018-03-11T05:21:07.213Z,99242.99
2018-03-11T05:23:38.155Z,99248.05
2018-03-11T05:26:09.172Z,99246.52
2018-03-11T05:28:40.493Z,99245.08
2018-03-11T05:31:12.426Z,99248.80
2018-03-11T05:33:42.788Z,99246.56
2018-03-11T05:36:13.453Z,99246.48
2018-03-11T05:38:44.113Z,99238.59
2018-03-11T05:41:15.768Z,99239.40
2018-03-11T05:43:46.379Z,99238.89
2018-03-11T05:46:17.268Z,99235.37
2018-03-11T05:48:48.345Z,99237.31
2018-03-11T05:51:19.503Z,99231.89
2018-03-11T05:53:50.170Z,99229.56
2018-03-11T05:56:21.194Z,99230.28
2018-03-11T05:58:51.090Z,99229.94
2018-03-11T06:01:21.856Z,99230.95
2018-03-11T06:03:53.444Z,99231.17
2018-03-11T06:06:24.497Z,99232.78
2018-03-11T06:08:54.788Z,99240.45
2018-03-11T06:11:25.528Z,99233.89
2018-03-11T06:13:56.185Z,99235.38
2018-03-11T06:16:27.607Z,99230.87
2018-03-11T06:18:57.469Z,99229.64
2018-03-11T06:21:28.825Z,99231.13
2018-03-11T06:23:58.748Z,99231.67
2018-03-11T06:26:29.471Z,99224.37
2018-03-11T06:28:59.488Z,99234.98
2018-03-11T06:31:30.122Z,99225.47
2018-03-11T06:34:00.692Z,99236.88
2018-03-11T06:36:31.338Z,99227.33
2018-03-11T06:39:02.198Z,99230.02
2018-03-11T06:41:33.538Z,99208.88
2018-03-11T06:44:04.368Z,99226.09
2018-03-11T06:46:35.319Z,99233.73
2018-03-11T06:49:05.814Z,99234.95
2018-03-11T06:51:37.453Z,99234.13
2018-03-11T06:54:08.228Z,99241.84
2018-03-11T06:56:39.713Z,99239.67
2018-03-11T06:59:10.332Z,99245.89
2018-03-11T07:01:45.889Z,99244.61
2018-03-11T07:04:23.088Z,99239.91
2018-03-11T07:06:52.439Z,99240.50
2018-03-11T07:09:21.653Z,99238.40
2018-03-11T07:11:50.785Z,99239.32
2018-03-11T07:14:19.979Z,99220.38
2018-03-11T07:16:57.313Z,99226.59
2018-03-11T07:19:30.756Z,99221.21
2018-03-11T07:22:07.502Z,99225.98
2018-03-11T07:24:44.621Z,99222.45
2018-03-11T07:27:13.432Z,99218.38
2018-03-11T07:29:42.625Z,99217.84
2018-03-11T07:32:11.448Z,99219.59
2018-03-11T07:34:40.573Z,99213.39
2018-03-11T07:37:09.742Z,99224.72
2018-03-11T07:39:38.768Z,99223.08
2018-03-11T07:42:07.885Z,99219.88
2018-03-11T07:44:37.096Z,99222.19
2018-03-11T07:47:06.441Z,99213.78
2018-03-11T07:49:35.644Z,99216.57
2018-03-11T07:52:04.923Z,99223.09
2018-03-11T07:54:34.762Z,99176.38
2018-03-11T07:57:03.963Z,99216.89
2018-03-11T07:59:33.613Z,99212.92
2018-03-11T08:02:05.677Z,99212.21
2018-03-11T08:04:34.890Z,99208.14
2018-03-11T08:07:04.827Z,99207.11
2018-03-11T08:09:35.512Z,99199.14
2018-03-11T08:12:06.173Z,99196.67
2018-03-11T08:14:37.088Z,99197.77
2018-03-11T08:17:07.704Z,99188.58
2018-03-11T08:19:38.420Z,99185.80
2018-03-11T08:22:09.223Z,99191.63
2018-03-11T08:24:41.509Z,99190.77
2018-03-11T08:27:11.457Z,99191.58
2018-03-11T08:29:42.241Z,99201.24
2018-03-11T08:32:12.473Z,99200.89
2018-03-11T08:34:43.327Z,99197.06
2018-03-11T08:37:14.697Z,99192.22
2018-03-11T08:39:45.331Z,99194.01
2018-03-11T08:42:16.565Z,99196.18
2018-03-11T08:44:47.233Z,99190.45
2018-03-11T08:47:19.103Z,99204.39
2018-03-11T08:49:49.937Z,99202.78
2018-03-11T08:52:20.347Z,99196.91
2018-03-11T08:54:51.975Z,99192.57
2018-03-11T08:57:22.508Z,99189.34
2018-03-11T08:59:53.076Z,99165.09
2018-03-11T09:02:24.225Z,99196.23
2018-03-11T09:04:55.704Z,99196.23
2018-03-11T09:07:24.588Z,99190.03
2018-03-11T09:09:56.409Z,99190.96
2018-03-11T09:12:27.880Z,99181.20
2018-03-11T09:14:59.317Z,99192.84
2018-03-11T09:17:29.836Z,99188.83
2018-03-11T09:20:00.277Z,99195.73
2018-03-11T09:22:30.941Z,99187.73
2018-03-11T09:25:01.523Z,99195.65
2018-03-11T09:27:32.316Z,99188.82
2018-03-11T09:30:03.169Z,99189.41
2018-03-11T09:32:35.347Z,99188.45
2018-03-11T09:35:04.844Z,99186.83
2018-03-11T09:37:35.498Z,99175.14
2018-03-11T09:40:06.645Z,99177.27
2018-03-11T09:42:39.248Z,99145.56
2018-03-11T09:45:08.853Z,99177.31
2018-03-11T09:47:39.456Z,99174.23
2018-03-11T09:50:10.219Z,99168.55
2018-03-11T09:52:40.806Z,99168.92
2018-03-11T09:55:11.503Z,99170.30
2018-03-11T09:57:42.423Z,99165.30
2018-03-11T10:00:13.311Z,99156.22
2018-03-11T10:02:44.088Z,99156.66
2018-03-11T10:05:15.571Z,99155.17
2018-03-11T10:07:46.364Z,99152.14
2018-03-11T10:10:17.277Z,99150.24
2018-03-11T10:12:48.278Z,99147.47
2018-03-11T10:15:19.225Z,99138.98
2018-03-11T10:17:50.185Z,99146.84
2018-03-11T10:20:21.227Z,99141.78
2018-03-11T10:22:52.570Z,99135.67
2018-03-11T10:25:23.197Z,99135.22
2018-03-11T10:27:54.203Z,99138.14
2018-03-11T10:30:25.196Z,99136.48
2018-03-11T10:32:56.465Z,99126.89
2018-03-11T10:35:27.269Z,99128.32
2018-03-11T10:37:58.135Z,99124.34
2018-03-11T10:40:29.637Z,99116.94
2018-03-11T10:43:00.186Z,99110.45
2018-03-11T10:45:31.215Z,99108.98
2018-03-11T10:48:02.105Z,99105.45
2018-03-11T10:50:33.488Z,99104.34
2018-03-11T10:53:04.154Z,99097.48
2018-03-11T10:55:35.896Z,99106.59
2018-03-11T10:58:06.510Z,99099.70
2018-03-11T11:00:42.649Z,99103.39
2018-03-11T11:03:28.116Z,99112.42
2018-03-11T11:06:03.670Z,99090.20
2018-03-11T11:08:33.094Z,99086.55
2018-03-11T11:11:01.967Z,99074.95
2018-03-11T11:13:30.945Z,99076.16
2018-03-11T11:16:00.068Z,99073.33
2018-03-11T11:18:29.599Z,99069.89
2018-03-11T11:20:58.749Z,99063.11
2018-03-11T11:23:29.050Z,99065.05
2018-03-11T11:25:59.225Z,99053.36
2018-03-11T11:28:28.487Z,99060.52
2018-03-11T11:30:58.283Z,99056.73
2018-03-11T11:33:28.695Z,99050.75
2018-03-11T11:35:57.563Z,99045.68
2018-03-11T11:38:26.420Z,99043.13
2018-03-11T11:40:55.314Z,99040.61
2018-03-11T11:43:24.186Z,99042.48
2018-03-11T11:45:53.065Z,99041.16
2018-03-11T11:48:22.007Z,99039.88
2018-03-11T11:50:52.596Z,99038.78
2018-03-11T11:53:23.543Z,99024.61
2018-03-11T11:55:54.212Z,99026.17
2018-03-11T11:58:24.744Z,99024.21
2018-03-11T12:00:55.352Z,99021.37
2018-03-11T12:03:26.216Z,99013.30
2018-03-11T12:05:57.083Z,99003.69
2018-03-11T12:08:28.462Z,98991.61
2018-03-11T12:10:59.280Z,98993.00
2018-03-11T12:13:30.256Z,98973.28
2018-03-11T12:16:01.136Z,98972.10
2018-03-11T12:18:32.177Z,98962.33
2018-03-11T12:21:03.195Z,98961.48
2018-03-11T12:23:34.240Z,98959.63
2018-03-11T12:26:05.151Z,98958.77
2018-03-11T12:28:36.555Z,98961.94
2018-03-11T12:31:07.190Z,98956.88
2018-03-11T12:33:37.782Z,98949.63
2018-03-11T12:36:08.362Z,98944.27
2018-03-11T12:38:38.766Z,98936.61
2018-03-11T12:41:09.403Z,98935.67
2018-03-11T12:43:40.173Z,98940.95
2018-03-11T12:46:11.155Z,98943.33
2018-03-11T12:48:42.271Z,98925.37
2018-03-11T12:51:13.167Z,98920.70
2018-03-11T12:53:43.937Z,98914.70
2018-03-11T12:56:14.466Z,98904.20
2018-03-11T12:58:45.191Z,98905.52
2018-03-11T13:01:16.159Z,98899.80
2018-03-11T13:03:47.540Z,98885.77
2018-03-11T13:06:18.151Z,98885.24
2018-03-11T13:08:49.153Z,98887.95
2018-03-11T13:11:19.732Z,98884.66
2018-03-11T13:13:50.425Z,98879.57
2018-03-11T13:16:20.878Z,98879.34
2018-03-11T13:18:51.536Z,98880.06
2018-03-11T13:21:22.209Z,98879.36
2018-03-11T13:23:53.286Z,98879.78
2018-03-11T13:26:24.156Z,98877.01
2018-03-11T13:28:55.191Z,98867.25
2018-03-11T13:31:28.254Z,98864.05
2018-03-11T13:34:18.746Z,98860.73
2018-03-11T13:36:47.855Z,98866.13
2018-03-11T13:39:27.768Z,98864.60
2018-03-11T13:41:56.788Z,98856.42
2018-03-11T13:44:25.906Z,98864.93
2018-03-11T13:47:09.640Z,98867.13
2018-03-11T13:49:38.820Z,98862.13
2018-03-11T13:52:18.688Z,98849.77
2018-03-11T13:54:47.738Z,98847.39
2018-03-11T14:00:33.543Z,98839.66
2018-03-11T14:03:02.731Z,98842.53
2018-03-11T14:05:31.801Z,98843.77
2018-03-11T14:08:00.796Z,98839.89
2018-03-11T14:10:29.921Z,98838.14
2018-03-11T14:12:58.769Z,98836.87
2018-03-11T14:15:27.910Z,98833.19
2018-03-11T14:17:56.871Z,98825.58
2018-03-11T14:20:25.786Z,98818.38
2018-03-11T14:22:54.880Z,98813.92
2018-03-11T14:25:23.877Z,98812.58
2018-03-11T14:27:52.873Z,98812.84
2018-03-11T14:30:21.843Z,98801.16
2018-03-11T14:32:50.945Z,98797.52
2018-03-11T14:35:19.852Z,98787.03
2018-03-11T14:37:48.837Z,98790.97
2018-03-11T14:40:17.822Z,98790.52
2018-03-11T14:42:46.771Z,98786.65
2018-03-11T14:45:15.722Z,98792.95
2018-03-11T14:47:44.859Z,98792.53
2018-03-11T14:50:13.750Z,98791.80
2018-03-11T14:52:42.692Z,98787.44
2018-03-11T14:55:11.927Z,98786.38
2018-03-11T14:57:40.800Z,98784.92
2018-03-11T15:00:09.820Z,98777.08
2018-03-11T15:02:38.864Z,98757.91
2018-03-11T15:05:08.664Z,98755.31
2018-03-11T15:07:37.771Z,98740.91
2018-03-11T15:10:06.907Z,98737.28
2018-03-11T15:12:35.818Z,98734.91
2018-03-11T15:15:04.945Z,98736.72
2018-03-11T15:17:33.870Z,98750.83
2018-03-11T15:20:02.765Z,98741.94
2018-03-11T15:22:31.816Z,98740.70
2018-03-11T15:25:00.775Z,98740.23
2018-03-11T15:27:29.756Z,98745.02
2018-03-11T15:29:58.916Z,98742.03
2018-03-11T15:32:27.878Z,98736.61
2018-03-11T15:34:57.595Z,98737.45
2018-03-11T15:37:26.631Z,98733.97
2018-03-11T15:39:56.611Z,98726.77
2018-03-11T15:42:25.488Z,98721.41
2018-03-11T15:44:55.924Z,98719.38
2018-03-11T15:47:24.929Z,98727.47
2018-03-11T15:49:54.189Z,98724.25
2018-03-11T15:52:23.726Z,98732.17
2018-03-11T15:54:53.748Z,98730.26
2018-03-11T15:57:23.182Z,98726.52
2018-03-11T15:59:52.654Z,98726.50
2018-03-11T16:02:24.048Z,98721.69
2018-03-11T16:04:53.958Z,98727.80
2018-03-11T16:07:22.839Z,98722.31
2018-03-11T16:09:52.553Z,98725.28
2018-03-11T16:12:23.275Z,98724.62
2018-03-11T16:14:59.413Z,98720.84
2018-03-11T16:17:28.240Z,98725.78
2018-03-11T16:19:57.104Z,98729.63
2018-03-11T16:22:27.842Z,98728.16
2018-03-11T16:24:58.884Z,98731.13
2018-03-11T16:27:29.678Z,98726.86
2018-03-11T16:30:00.402Z,98730.16
2018-03-11T16:32:31.389Z,98725.67
2018-03-11T16:35:01.197Z,98728.00
2018-03-11T16:37:33.007Z,98734.78
2018-03-11T16:40:05.515Z,98727.16
2018-03-11T16:42:36.023Z,98726.74
2018-03-11T16:45:05.740Z,98719.36
2018-03-11T16:47:37.294Z,98714.02
2018-03-11T16:50:07.142Z,98717.91
2018-03-11T16:52:38.603Z,98714.89
2018-03-11T16:55:08.392Z,98708.03
2018-03-11T16:57:39.420Z,98705.48
2018-03-11T17:00:10.233Z,98712.28
2018-03-11T17:02:42.105Z,98706.48
2018-03-11T17:05:13.274Z,98698.89
2018-03-11T17:07:44.565Z,98707.86
2018-03-11T17:10:14.283Z,98698.02
2018-03-11T17:12:46.315Z,98714.47
2018-03-11T17:15:19.477Z,98712.08
2018-03-11T17:17:48.490Z,98714.35
2018-03-11T17:20:19.059Z,98719.46
2018-03-11T17:22:49.640Z,98726.33
2018-03-11T17:25:21.133Z,98724.15
2018-03-11T17:27:51.890Z,98733.33
2018-03-11T17:30:23.277Z,98733.25
2018-03-11T17:32:53.837Z,98727.08
2018-03-11T17:35:24.609Z,98729.75
2018-03-11T17:37:55.452Z,98730.44
2018-03-11T17:40:26.306Z,98723.67
2018-03-11T17:42:58.876Z,98719.61
2018-03-11T17:45:30.806Z,98720.70
2018-03-11T17:48:01.338Z,98719.04
2018-03-11T17:50:31.886Z,98731.25
2018-03-11T17:53:01.858Z,98733.31
2018-03-11T17:55:32.603Z,98740.01
2018-03-11T17:58:03.748Z,98741.34
2018-03-11T18:00:33.365Z,98745.76
2018-03-11T18:03:04.201Z,98744.05
2018-03-11T18:05:35.392Z,98741.27
2018-03-11T18:08:06.413Z,98743.24
2018-03-11T18:10:36.931Z,98741.73
2018-03-11T18:13:07.779Z,98736.91
2018-03-11T18:15:38.624Z,98734.52
2018-03-11T18:18:09.381Z,98733.17
2018-03-11T18:20:40.230Z,98726.94
2018-03-11T18:23:11.265Z,98735.17
2018-03-11T18:25:41.400Z,98740.66
2018-03-11T18:28:11.994Z,98729.11
2018-03-11T18:30:42.928Z,98728.27
2018-03-11T18:33:14.024Z,98705.86
2018-03-11T18:35:44.891Z,98731.47
2018-03-11T18:38:15.980Z,98729.83
2018-03-11T18:40:46.888Z,98725.38
2018-03-11T18:43:17.982Z,98728.02
2018-03-11T18:45:49.025Z,98729.90
2018-03-11T18:48:19.962Z,98724.45
2018-03-11T18:50:50.957Z,98741.15
2018-03-11T18:53:21.979Z,98737.50
2018-03-11T18:55:52.985Z,98737.23
2018-03-11T18:58:23.929Z,98742.56
2018-03-11T19:00:54.950Z,98738.83
2018-03-11T19:03:25.989Z,98738.52
2018-03-11T19:05:56.975Z,98745.76
2018-03-11T19:08:27.820Z,98743.59
2018-03-11T19:10:58.855Z,98749.22
2018-03-11T19:13:29.919Z,98747.70
2018-03-11T19:16:00.872Z,98743.87
2018-03-11T19:18:31.926Z,98744.59
2018-03-11T19:21:02.916Z,98736.50
2018-03-11T19:23:33.979Z,98740.49
2018-03-11T19:26:04.829Z,98729.84
2018-03-11T19:28:36.233Z,98734.09
2018-03-11T19:31:06.954Z,98733.08
2018-03-11T19:33:38.004Z,98730.02
2018-03-11T19:36:08.894Z,98720.80
2018-03-11T19:38:40.032Z,98719.66
2018-03-11T19:41:10.928Z,98711.47
2018-03-11T19:43:42.125Z,98714.44
2018-03-11T19:46:12.864Z,98707.03
2018-03-11T19:48:44.073Z,98713.31
2018-03-11T19:51:15.193Z,98714.70
2018-03-11T19:53:47.305Z,98701.50
2018-03-11T19:56:19.239Z,98709.03
2018-03-11T19:58:49.933Z,98701.75
2018-03-11T20:01:20.679Z,98691.22
2018-03-11T20:03:52.465Z,98693.80
2018-03-11T20:06:24.320Z,98691.63
2018-03-11T20:08:54.200Z,98687.52
2018-03-11T20:11:25.038Z,98685.69
2018-03-11T20:13:57.005Z,98674.15
2018-03-11T20:16:26.889Z,98677.63
2018-03-11T20:18:57.732Z,98673.22
2018-03-11T20:21:28.489Z,98665.25
2018-03-11T20:23:59.159Z,98666.39
2018-03-11T20:26:29.889Z,98657.16
2018-03-11T20:28:59.978Z,98657.70
2018-03-11T20:31:30.785Z,98646.60
2018-03-11T20:34:01.587Z,98646.45
2018-03-11T20:36:32.464Z,98649.20
2018-03-11T20:39:03.217Z,98679.84
2018-03-11T20:41:34.524Z,98663.00
2018-03-11T20:44:05.231Z,98677.06
2018-03-11T20:46:35.680Z,98670.80
2018-03-11T20:49:06.321Z,98658.28
2018-03-11T20:51:37.180Z,98661.25
2018-03-11T20:54:07.740Z,98656.09
2018-03-11T20:56:38.348Z,98652.45
2018-03-11T20:59:09.211Z,98653.07
2018-03-11T21:01:39.750Z,98648.10
2018-03-11T21:04:10.548Z,98645.40
2018-03-11T21:06:41.169Z,98633.77
2018-03-11T21:09:12.580Z,98641.91
2018-03-11T21:11:43.219Z,98647.94
2018-03-11T21:14:13.737Z,98631.27
2018-03-11T21:16:44.333Z,98590.87
2018-03-11T21:19:15.266Z,98631.73
2018-03-11T21:21:46.261Z,98628.19
2018-03-11T21:24:17.156Z,98628.68
2018-03-11T21:26:48.419Z,98627.73
2018-03-11T21:29:19.260Z,98627.69
2018-03-11T21:31:49.804Z,98619.39
2018-03-11T21:34:19.847Z,98612.91
2018-03-11T21:36:51.399Z,98614.20
2018-03-11T21:39:21.961Z,98606.77
2018-03-11T21:41:53.503Z,98596.86
2018-03-11T21:44:24.328Z,98601.36
2018-03-11T21:46:55.655Z,98596.09
2018-03-11T21:49:26.496Z,98587.91
2018-03-11T21:51:57.385Z,98584.70
2018-03-11T21:54:27.802Z,98588.27
2018-03-11T21:56:57.848Z,98579.15
2018-03-11T21:59:28.877Z,98580.30
2018-03-11T22:01:59.752Z,98574.56
2018-03-11T22:04:31.103Z,98574.69
2018-03-11T22:07:02.432Z,98580.70
2018-03-11T22:09:33.246Z,98581.45
2018-03-11T22:12:04.178Z,98573.14
2018-03-11T22:14:35.292Z,98569.11
2018-03-11T22:17:06.537Z,98561.48
2018-03-11T22:19:37.321Z,98560.00
2018-03-11T22:22:08.500Z,98558.97
2018-03-11T22:24:41.373Z,98550.97
2018-03-11T22:27:10.488Z,98538.72
2018-03-11T22:29:41.426Z,98531.33
2018-03-11T22:32:12.065Z,98539.19
2018-03-11T22:34:42.471Z,98547.67
2018-03-11T22:37:13.200Z,98533.95
2018-03-11T22:39:44.518Z,98545.04
2018-03-11T22:42:15.152Z,98538.23
2018-03-11T22:44:45.798Z,98533.42
2018-03-11T22:47:16.389Z,98529.64
2018-03-11T22:49:47.541Z,98522.41
2018-03-11T22:52:18.228Z,98523.63
2018-03-11T22:54:49.249Z,98512.30
2018-03-11T22:57:20.144Z,98507.70
2018-03-11T22:59:50.759Z,98506.18
2018-03-11T23:02:21.393Z,98507.75
2018-03-11T23:04:52.307Z,98506.08
2018-03-11T23:07:23.977Z,98495.59
2018-03-11T23:09:54.876Z,98490.35
2018-03-11T23:12:25.516Z,98487.67
2018-03-11T23:14:56.025Z,98473.59
2018-03-11T23:17:26.512Z,98478.28
2018-03-11T23:19:58.192Z,98480.09
2018-03-11T23:22:28.509Z,98470.23
2018-03-11T23:24:59.224Z,98475.55
2018-03-11T23:27:29.043Z,98472.55
2018-03-11T23:29:59.832Z,98468.09
2018-03-11T23:32:31.217Z,98465.35
2018-03-11T23:35:02.212Z,98461.98
2018-03-11T23:37:33.927Z,98468.10
2018-03-11T23:40:04.609Z,98460.69
2018-03-11T23:42:35.735Z,98456.66
2018-03-11T23:45:06.355Z,98451.16
2018-03-11T23:47:40.800Z,98451.61
2018-03-11T23:50:09.776Z,98449.33
2018-03-11T23:52:38.899Z,98444.85
2018-03-11T23:55:09.073Z,98442.14
2018-03-11T23:57:45.029Z,98435.97
